Terminal Aerodrome Forecast
Issued by NWS Sioux Falls, SD

Home | Current Version | Previous Version | Text Only | Print | Product List | Glossary Off
Versions: 1 2 3 4 5 6 7 8 9 10 11 12 13 14 15 16 17

000
FTUS43 KFSD 231721
TAFHON
TAF
KHON 231721Z 2318/2418 34014G22KT 1 1/2SM -SN BR OVC006
     FM231930 33020G28KT P6SM OVC008
     FM240200 32014KT P6SM OVC008
     FM240600 32013KT P6SM OVC012=

USA.gov is the U.S. government's official web portal to all federal, state and local government web resources and services.